Osvaldo Cruz, Brazil
Current Conditions -  °F | °C
As of 12:00 PM on Wednesday 26 Nov 2014 (Local Time) from SBDN Reporting Station
Broken Clouds Broken Clouds  
Wind Chill: 81°   Ceiling: 2100
Heat Index: 84°   Visibility: 6mi
Dew Point: 70°   Wind: 8mph
Humidity: 70%   Direction: 260°W
Pressure: 29.83"   Gusts: NA
Location:  21.8°S, 50.88°W
Report Text: SBDN 261400Z 26007KT 9999 BKN021 SCT050 27/21 Q1010
Loading
Personal Weather Stations






























Interactive Weather Map New forecast layout! Learn more

10-Day Weather Forecast

Advertisements
Track Severe Weather on mobile